sensor_id;sensor_type;location;lat;lon;timestamp;P1;durP1;ratioP1;P2;durP2;ratioP2
10653;SDS011;5375;51.250;6.776;2022-11-30T00:00:01;6.83;;;4.87;;
10653;SDS011;5375;51.250;6.776;2022-11-30T00:02:29;5.97;;;4.60;;
10653;SDS011;5375;51.250;6.776;2022-11-30T00:04:55;7.97;;;4.93;;
10653;SDS011;5375;51.250;6.776;2022-11-30T00:07:20;6.60;;;4.43;;
10653;SDS011;5375;51.250;6.776;2022-11-30T00:09:46;7.10;;;5.50;;
10653;SDS011;5375;51.250;6.776;2022-11-30T00:12:11;6.30;;;4.73;;
10653;SDS011;5375;51.250;6.776;2022-11-30T00:14:37;5.50;;;4.40;;
10653;SDS011;5375;51.250;6.776;2022-11-30T00:17:02;7.70;;;5.00;;
10653;SDS011;5375;51.250;6.776;2022-11-30T00:19:28;6.10;;;4.60;;
10653;SDS011;5375;51.250;6.776;2022-11-30T00:21:54;7.40;;;5.20;;
10653;SDS011;5375;51.250;6.776;2022-11-30T00:24:19;6.67;;;4.63;;
10653;SDS011;5375;51.250;6.776;2022-11-30T00:26:45;5.87;;;4.67;;
10653;SDS011;5375;51.250;6.776;2022-11-30T00:29:10;7.20;;;4.90;;
10653;SDS011;5375;51.250;6.776;2022-11-30T00:31:37;6.97;;;5.07;;
10653;SDS011;5375;51.250;6.776;2022-11-30T00:34:02;7.00;;;5.17;;
10653;SDS011;5375;51.250;6.776;2022-11-30T00:36:28;5.83;;;4.53;;
10653;SDS011;5375;51.250;6.776;2022-11-30T00:38:54;7.40;;;5.40;;
10653;SDS011;5375;51.250;6.776;2022-11-30T00:41:19;8.03;;;5.57;;
10653;SDS011;5375;51.250;6.776;2022-11-30T00:43:45;7.57;;;4.83;;
10653;SDS011;5375;51.250;6.776;2022-11-30T00:46:11;7.10;;;5.23;;
10653;SDS011;5375;51.250;6.776;2022-11-30T00:48:37;7.63;;;5.17;;
10653;SDS011;5375;51.250;6.776;2022-11-30T00:51:04;7.27;;;5.33;;
10653;SDS011;5375;51.250;6.776;2022-11-30T00:53:30;7.47;;;5.00;;
10653;SDS011;5375;51.250;6.776;2022-11-30T00:55:56;7.10;;;5.27;;
10653;SDS011;5375;51.250;6.776;2022-11-30T00:58:21;8.93;;;5.80;;
10653;SDS011;5375;51.250;6.776;2022-11-30T01:00:47;8.07;;;5.20;;
10653;SDS011;5375;51.250;6.776;2022-11-30T01:03:13;8.63;;;5.47;;
10653;SDS011;5375;51.250;6.776;2022-11-30T01:05:39;6.47;;;5.00;;
10653;SDS011;5375;51.250;6.776;2022-11-30T01:08:06;8.60;;;5.20;;
10653;SDS011;5375;51.250;6.776;2022-11-30T01:10:33;7.30;;;5.33;;
10653;SDS011;5375;51.250;6.776;2022-11-30T01:13:00;8.63;;;5.23;;
10653;SDS011;5375;51.250;6.776;2022-11-30T01:15:26;7.73;;;4.93;;
10653;SDS011;5375;51.250;6.776;2022-11-30T01:17:52;8.23;;;5.43;;
10653;SDS011;5375;51.250;6.776;2022-11-30T01:20:17;9.37;;;5.60;;
10653;SDS011;5375;51.250;6.776;2022-11-30T01:22:43;6.80;;;5.07;;
10653;SDS011;5375;51.250;6.776;2022-11-30T01:25:09;8.50;;;5.60;;
10653;SDS011;5375;51.250;6.776;2022-11-30T01:27:35;6.70;;;5.07;;
10653;SDS011;5375;51.250;6.776;2022-11-30T01:30:00;7.47;;;5.40;;
10653;SDS011;5375;51.250;6.776;2022-11-30T01:32:26;8.37;;;5.40;;
10653;SDS011;5375;51.250;6.776;2022-11-30T01:34:52;7.27;;;5.37;;
10653;SDS011;5375;51.250;6.776;2022-11-30T01:37:18;7.67;;;5.63;;
10653;SDS011;5375;51.250;6.776;2022-11-30T01:39:43;6.93;;;5.20;;
10653;SDS011;5375;51.250;6.776;2022-11-30T01:42:13;8.13;;;5.73;;
10653;SDS011;5375;51.250;6.776;2022-11-30T01:44:52;7.33;;;5.40;;
10653;SDS011;5375;51.250;6.776;2022-11-30T01:47:19;7.63;;;5.57;;
10653;SDS011;5375;51.250;6.776;2022-11-30T01:49:51;8.73;;;5.47;;
10653;SDS011;5375;51.250;6.776;2022-11-30T01:52:26;6.47;;;4.70;;
10653;SDS011;5375;51.250;6.776;2022-11-30T01:54:57;7.20;;;4.93;;
10653;SDS011;5375;51.250;6.776;2022-11-30T01:57:37;8.33;;;5.80;;
10653;SDS011;5375;51.250;6.776;2022-11-30T02:00:12;6.83;;;4.93;;
10653;SDS011;5375;51.250;6.776;2022-11-30T02:05:32;8.10;;;4.90;;
10653;SDS011;5375;51.250;6.776;2022-11-30T02:08:00;6.97;;;5.10;;
10653;SDS011;5375;51.250;6.776;2022-11-30T02:10:30;7.00;;;4.93;;
10653;SDS011;5375;51.250;6.776;2022-11-30T02:15:30;9.10;;;5.60;;
10653;SDS011;5375;51.250;6.776;2022-11-30T02:18:10;7.37;;;5.70;;
10653;SDS011;5375;51.250;6.776;2022-11-30T02:20:49;7.73;;;5.67;;
10653;SDS011;5375;51.250;6.776;2022-11-30T02:23:38;7.80;;;5.80;;
10653;SDS011;5375;51.250;6.776;2022-11-30T02:34:14;8.83;;;5.67;;
10653;SDS011;5375;51.250;6.776;2022-11-30T02:36:44;8.03;;;5.03;;
10653;SDS011;5375;51.250;6.776;2022-11-30T02:39:10;7.13;;;5.50;;
10653;SDS011;5375;51.250;6.776;2022-11-30T02:41:37;7.23;;;5.53;;
10653;SDS011;5375;51.250;6.776;2022-11-30T02:44:03;7.87;;;5.93;;
10653;SDS011;5375;51.250;6.776;2022-11-30T02:49:12;7.13;;;5.23;;
10653;SDS011;5375;51.250;6.776;2022-11-30T02:51:45;7.37;;;5.17;;
10653;SDS011;5375;51.250;6.776;2022-11-30T02:54:14;6.93;;;5.07;;
10653;SDS011;5375;51.250;6.776;2022-11-30T02:56:41;7.70;;;5.33;;
10653;SDS011;5375;51.250;6.776;2022-11-30T02:59:07;7.90;;;5.33;;
10653;SDS011;5375;51.250;6.776;2022-11-30T03:01:32;6.90;;;5.00;;
10653;SDS011;5375;51.250;6.776;2022-11-30T03:03:58;7.87;;;5.07;;
10653;SDS011;5375;51.250;6.776;2022-11-30T03:06:24;6.07;;;5.30;;
10653;SDS011;5375;51.250;6.776;2022-11-30T03:08:49;6.93;;;5.27;;
10653;SDS011;5375;51.250;6.776;2022-11-30T03:11:15;6.60;;;5.23;;
10653;SDS011;5375;51.250;6.776;2022-11-30T03:13:41;6.47;;;5.00;;
10653;SDS011;5375;51.250;6.776;2022-11-30T03:16:07;6.93;;;5.13;;
10653;SDS011;5375;51.250;6.776;2022-11-30T03:18:33;6.33;;;5.00;;
10653;SDS011;5375;51.250;6.776;2022-11-30T03:20:59;6.67;;;4.93;;
10653;SDS011;5375;51.250;6.776;2022-11-30T03:23:28;7.13;;;4.80;;
10653;SDS011;5375;51.250;6.776;2022-11-30T03:25:57;7.03;;;4.97;;
10653;SDS011;5375;51.250;6.776;2022-11-30T03:28:23;6.30;;;4.60;;
10653;SDS011;5375;51.250;6.776;2022-11-30T03:30:49;6.80;;;4.93;;
10653;SDS011;5375;51.250;6.776;2022-11-30T03:33:15;6.20;;;4.50;;
10653;SDS011;5375;51.250;6.776;2022-11-30T03:35:42;7.20;;;5.07;;
10653;SDS011;5375;51.250;6.776;2022-11-30T03:38:08;6.87;;;5.13;;
10653;SDS011;5375;51.250;6.776;2022-11-30T03:40:35;6.77;;;5.00;;
10653;SDS011;5375;51.250;6.776;2022-11-30T03:43:00;6.23;;;4.83;;
10653;SDS011;5375;51.250;6.776;2022-11-30T03:45:26;7.70;;;5.27;;
10653;SDS011;5375;51.250;6.776;2022-11-30T03:47:52;5.07;;;4.50;;
10653;SDS011;5375;51.250;6.776;2022-11-30T03:50:17;5.77;;;4.67;;
10653;SDS011;5375;51.250;6.776;2022-11-30T03:52:43;5.37;;;4.70;;
10653;SDS011;5375;51.250;6.776;2022-11-30T03:55:09;5.87;;;4.70;;
10653;SDS011;5375;51.250;6.776;2022-11-30T03:57:34;6.93;;;4.30;;
10653;SDS011;5375;51.250;6.776;2022-11-30T04:00:00;6.50;;;4.67;;
10653;SDS011;5375;51.250;6.776;2022-11-30T04:02:26;5.83;;;4.80;;
10653;SDS011;5375;51.250;6.776;2022-11-30T04:04:51;5.83;;;4.50;;
10653;SDS011;5375;51.250;6.776;2022-11-30T04:07:17;6.43;;;4.57;;
10653;SDS011;5375;51.250;6.776;2022-11-30T04:09:42;6.50;;;4.43;;
10653;SDS011;5375;51.250;6.776;2022-11-30T04:12:08;6.17;;;4.73;;
10653;SDS011;5375;51.250;6.776;2022-11-30T04:14:33;7.50;;;4.50;;
10653;SDS011;5375;51.250;6.776;2022-11-30T04:16:59;5.20;;;4.40;;
10653;SDS011;5375;51.250;6.776;2022-11-30T04:19:25;5.00;;;4.40;;
10653;SDS011;5375;51.250;6.776;2022-11-30T04:21:50;6.33;;;4.00;;
10653;SDS011;5375;51.250;6.776;2022-11-30T04:24:16;9.33;;;4.43;;
10653;SDS011;5375;51.250;6.776;2022-11-30T04:26:42;14.83;;;4.70;;
10653;SDS011;5375;51.250;6.776;2022-11-30T04:29:07;18.23;;;4.73;;
10653;SDS011;5375;51.250;6.776;2022-11-30T04:31:33;7.90;;;3.90;;
10653;SDS011;5375;51.250;6.776;2022-11-30T04:33:58;9.17;;;4.17;;
10653;SDS011;5375;51.250;6.776;2022-11-30T04:36:24;9.00;;;4.37;;
10653;SDS011;5375;51.250;6.776;2022-11-30T04:38:50;6.40;;;4.33;;
10653;SDS011;5375;51.250;6.776;2022-11-30T04:41:15;6.00;;;4.40;;
10653;SDS011;5375;51.250;6.776;2022-11-30T04:43:41;7.90;;;4.30;;
10653;SDS011;5375;51.250;6.776;2022-11-30T04:46:07;6.10;;;4.10;;
10653;SDS011;5375;51.250;6.776;2022-11-30T04:48:33;6.37;;;4.10;;
10653;SDS011;5375;51.250;6.776;2022-11-30T04:51:00;5.87;;;4.23;;
10653;SDS011;5375;51.250;6.776;2022-11-30T04:53:30;5.20;;;4.33;;
10653;SDS011;5375;51.250;6.776;2022-11-30T04:55:56;6.43;;;4.30;;
10653;SDS011;5375;51.250;6.776;2022-11-30T04:58:22;6.73;;;4.50;;
10653;SDS011;5375;51.250;6.776;2022-11-30T05:00:47;5.93;;;4.30;;
10653;SDS011;5375;51.250;6.776;2022-11-30T05:03:13;4.50;;;4.00;;
10653;SDS011;5375;51.250;6.776;2022-11-30T05:05:39;6.10;;;4.13;;
10653;SDS011;5375;51.250;6.776;2022-11-30T05:08:04;5.60;;;4.40;;
10653;SDS011;5375;51.250;6.776;2022-11-30T05:10:30;5.40;;;4.17;;
10653;SDS011;5375;51.250;6.776;2022-11-30T05:12:57;4.93;;;3.93;;
10653;SDS011;5375;51.250;6.776;2022-11-30T05:15:23;5.13;;;3.67;;
10653;SDS011;5375;51.250;6.776;2022-11-30T05:17:49;5.30;;;3.87;;
10653;SDS011;5375;51.250;6.776;2022-11-30T05:20:15;4.07;;;3.43;;
10653;SDS011;5375;51.250;6.776;2022-11-30T05:22:41;6.23;;;4.20;;
10653;SDS011;5375;51.250;6.776;2022-11-30T05:25:07;8.07;;;3.93;;
10653;SDS011;5375;51.250;6.776;2022-11-30T05:27:33;4.53;;;3.67;;
10653;SDS011;5375;51.250;6.776;2022-11-30T05:29:59;4.90;;;3.90;;
10653;SDS011;5375;51.250;6.776;2022-11-30T05:32:25;5.90;;;3.53;;
10653;SDS011;5375;51.250;6.776;2022-11-30T05:34:51;4.43;;;3.70;;
10653;SDS011;5375;51.250;6.776;2022-11-30T05:37:16;3.93;;;3.50;;
10653;SDS011;5375;51.250;6.776;2022-11-30T05:39:43;5.50;;;3.80;;
10653;SDS011;5375;51.250;6.776;2022-11-30T05:42:08;5.07;;;3.40;;
10653;SDS011;5375;51.250;6.776;2022-11-30T05:44:34;4.83;;;3.97;;
10653;SDS011;5375;51.250;6.776;2022-11-30T05:46:59;7.10;;;3.47;;
10653;SDS011;5375;51.250;6.776;2022-11-30T05:49:25;6.00;;;3.57;;
10653;SDS011;5375;51.250;6.776;2022-11-30T05:51:51;4.60;;;3.83;;
10653;SDS011;5375;51.250;6.776;2022-11-30T05:54:16;7.87;;;4.13;;
10653;SDS011;5375;51.250;6.776;2022-11-30T05:56:42;5.53;;;4.00;;
10653;SDS011;5375;51.250;6.776;2022-11-30T05:59:08;6.67;;;4.23;;
10653;SDS011;5375;51.250;6.776;2022-11-30T06:01:35;5.80;;;3.80;;
10653;SDS011;5375;51.250;6.776;2022-11-30T06:04:03;5.67;;;4.20;;
10653;SDS011;5375;51.250;6.776;2022-11-30T06:06:30;4.40;;;3.60;;
10653;SDS011;5375;51.250;6.776;2022-11-30T06:08:56;5.87;;;4.30;;
10653;SDS011;5375;51.250;6.776;2022-11-30T06:11:22;6.23;;;4.03;;
10653;SDS011;5375;51.250;6.776;2022-11-30T06:13:47;5.63;;;4.13;;
10653;SDS011;5375;51.250;6.776;2022-11-30T06:16:13;5.43;;;4.07;;
10653;SDS011;5375;51.250;6.776;2022-11-30T06:18:39;4.80;;;4.03;;
10653;SDS011;5375;51.250;6.776;2022-11-30T06:21:05;4.70;;;3.97;;
10653;SDS011;5375;51.250;6.776;2022-11-30T06:23:35;5.00;;;3.77;;
10653;SDS011;5375;51.250;6.776;2022-11-30T06:26:05;4.93;;;3.90;;
10653;SDS011;5375;51.250;6.776;2022-11-30T06:28:34;4.97;;;3.80;;
10653;SDS011;5375;51.250;6.776;2022-11-30T06:31:00;5.40;;;4.07;;
10653;SDS011;5375;51.250;6.776;2022-11-30T06:33:27;5.07;;;3.70;;
10653;SDS011;5375;51.250;6.776;2022-11-30T06:35:53;4.80;;;3.73;;
10653;SDS011;5375;51.250;6.776;2022-11-30T06:38:19;4.63;;;3.43;;
10653;SDS011;5375;51.250;6.776;2022-11-30T06:40:45;4.10;;;3.53;;
10653;SDS011;5375;51.250;6.776;2022-11-30T06:43:11;4.90;;;3.40;;
10653;SDS011;5375;51.250;6.776;2022-11-30T06:45:37;5.10;;;3.83;;
10653;SDS011;5375;51.250;6.776;2022-11-30T06:48:03;5.50;;;3.63;;
10653;SDS011;5375;51.250;6.776;2022-11-30T06:50:29;5.40;;;3.60;;
10653;SDS011;5375;51.250;6.776;2022-11-30T06:52:55;5.07;;;3.53;;
10653;SDS011;5375;51.250;6.776;2022-11-30T06:55:21;5.13;;;3.80;;
10653;SDS011;5375;51.250;6.776;2022-11-30T06:57:48;4.63;;;3.80;;
10653;SDS011;5375;51.250;6.776;2022-11-30T07:00:14;4.47;;;3.50;;
10653;SDS011;5375;51.250;6.776;2022-11-30T07:02:40;5.10;;;3.77;;
10653;SDS011;5375;51.250;6.776;2022-11-30T07:05:05;4.47;;;3.40;;
10653;SDS011;5375;51.250;6.776;2022-11-30T07:07:31;5.33;;;3.47;;
10653;SDS011;5375;51.250;6.776;2022-11-30T07:09:57;4.77;;;3.77;;
10653;SDS011;5375;51.250;6.776;2022-11-30T07:12:23;3.40;;;3.07;;
10653;SDS011;5375;51.250;6.776;2022-11-30T07:14:49;4.77;;;3.50;;
10653;SDS011;5375;51.250;6.776;2022-11-30T07:17:20;5.07;;;4.03;;
10653;SDS011;5375;51.250;6.776;2022-11-30T07:19:47;4.13;;;3.50;;
10653;SDS011;5375;51.250;6.776;2022-11-30T07:22:12;4.83;;;3.40;;
10653;SDS011;5375;51.250;6.776;2022-11-30T07:24:38;4.00;;;3.10;;
10653;SDS011;5375;51.250;6.776;2022-11-30T07:27:23;6.17;;;3.77;;
10653;SDS011;5375;51.250;6.776;2022-11-30T07:29:48;4.03;;;3.30;;
10653;SDS011;5375;51.250;6.776;2022-11-30T07:32:16;4.00;;;3.60;;
10653;SDS011;5375;51.250;6.776;2022-11-30T07:34:42;6.37;;;3.53;;
10653;SDS011;5375;51.250;6.776;2022-11-30T07:37:08;5.47;;;3.57;;
10653;SDS011;5375;51.250;6.776;2022-11-30T07:39:33;3.97;;;3.10;;
10653;SDS011;5375;51.250;6.776;2022-11-30T07:41:59;3.70;;;3.30;;
10653;SDS011;5375;51.250;6.776;2022-11-30T07:44:25;3.40;;;3.07;;
10653;SDS011;5375;51.250;6.776;2022-11-30T07:46:51;4.50;;;3.07;;
10653;SDS011;5375;51.250;6.776;2022-11-30T07:49:17;5.00;;;3.57;;
10653;SDS011;5375;51.250;6.776;2022-11-30T07:51:42;4.97;;;3.60;;
10653;SDS011;5375;51.250;6.776;2022-11-30T07:54:08;4.77;;;3.53;;
10653;SDS011;5375;51.250;6.776;2022-11-30T07:56:34;3.37;;;3.07;;
10653;SDS011;5375;51.250;6.776;2022-11-30T07:59:00;5.60;;;3.23;;
10653;SDS011;5375;51.250;6.776;2022-11-30T08:01:27;6.43;;;3.30;;
10653;SDS011;5375;51.250;6.776;2022-11-30T08:03:55;8.03;;;3.30;;
10653;SDS011;5375;51.250;6.776;2022-11-30T08:06:21;4.53;;;3.47;;
10653;SDS011;5375;51.250;6.776;2022-11-30T08:08:50;4.53;;;3.60;;
10653;SDS011;5375;51.250;6.776;2022-11-30T08:11:20;3.63;;;3.30;;
10653;SDS011;5375;51.250;6.776;2022-11-30T08:13:48;3.63;;;3.10;;
10653;SDS011;5375;51.250;6.776;2022-11-30T08:16:15;4.17;;;3.40;;
10653;SDS011;5375;51.250;6.776;2022-11-30T08:18:50;7.47;;;3.27;;
10653;SDS011;5375;51.250;6.776;2022-11-30T08:21:17;4.47;;;3.30;;
10653;SDS011;5375;51.250;6.776;2022-11-30T08:23:49;3.83;;;3.10;;
10653;SDS011;5375;51.250;6.776;2022-11-30T08:26:21;4.20;;;3.37;;
10653;SDS011;5375;51.250;6.776;2022-11-30T08:28:52;3.90;;;2.93;;
10653;SDS011;5375;51.250;6.776;2022-11-30T08:31:19;5.00;;;3.40;;
10653;SDS011;5375;51.250;6.776;2022-11-30T08:33:47;3.47;;;3.00;;
10653;SDS011;5375;51.250;6.776;2022-11-30T08:36:17;3.60;;;3.27;;
10653;SDS011;5375;51.250;6.776;2022-11-30T08:38:45;3.53;;;3.23;;
10653;SDS011;5375;51.250;6.776;2022-11-30T08:41:13;5.13;;;3.20;;
10653;SDS011;5375;51.250;6.776;2022-11-30T08:43:40;4.10;;;3.20;;
10653;SDS011;5375;51.250;6.776;2022-11-30T08:46:07;3.77;;;3.17;;
10653;SDS011;5375;51.250;6.776;2022-11-30T08:48:34;5.63;;;3.27;;
10653;SDS011;5375;51.250;6.776;2022-11-30T08:51:00;3.63;;;3.07;;
10653;SDS011;5375;51.250;6.776;2022-11-30T08:53:30;3.87;;;3.13;;
10653;SDS011;5375;51.250;6.776;2022-11-30T08:55:56;3.67;;;3.20;;
10653;SDS011;5375;51.250;6.776;2022-11-30T08:58:24;3.90;;;3.50;;
10653;SDS011;5375;51.250;6.776;2022-11-30T09:00:51;4.40;;;3.20;;
10653;SDS011;5375;51.250;6.776;2022-11-30T09:03:17;4.03;;;2.90;;
10653;SDS011;5375;51.250;6.776;2022-11-30T09:05:43;4.33;;;3.50;;
10653;SDS011;5375;51.250;6.776;2022-11-30T09:08:09;4.13;;;3.30;;
10653;SDS011;5375;51.250;6.776;2022-11-30T09:10:35;5.47;;;2.80;;
10653;SDS011;5375;51.250;6.776;2022-11-30T09:13:00;3.50;;;3.20;;
10653;SDS011;5375;51.250;6.776;2022-11-30T09:15:26;4.67;;;3.63;;
10653;SDS011;5375;51.250;6.776;2022-11-30T09:17:51;5.23;;;3.43;;
10653;SDS011;5375;51.250;6.776;2022-11-30T09:20:18;4.27;;;3.03;;
10653;SDS011;5375;51.250;6.776;2022-11-30T09:22:44;3.83;;;3.30;;
10653;SDS011;5375;51.250;6.776;2022-11-30T09:25:09;3.73;;;3.13;;
10653;SDS011;5375;51.250;6.776;2022-11-30T09:27:35;3.93;;;3.20;;
10653;SDS011;5375;51.250;6.776;2022-11-30T09:30:01;4.13;;;2.73;;
10653;SDS011;5375;51.250;6.776;2022-11-30T09:32:27;3.77;;;3.00;;
10653;SDS011;5375;51.250;6.776;2022-11-30T09:34:53;4.30;;;3.30;;
10653;SDS011;5375;51.250;6.776;2022-11-30T09:37:19;3.33;;;2.77;;
10653;SDS011;5375;51.250;6.776;2022-11-30T09:39:46;3.80;;;3.13;;
10653;SDS011;5375;51.250;6.776;2022-11-30T09:50:02;4.30;;;3.17;;
10653;SDS011;5375;51.250;6.776;2022-11-30T09:52:35;4.93;;;3.60;;
10653;SDS011;5375;51.250;6.776;2022-11-30T09:55:08;4.10;;;3.07;;
10653;SDS011;5375;51.250;6.776;2022-11-30T09:57:47;4.73;;;3.40;;
10653;SDS011;5375;51.250;6.776;2022-11-30T10:00:18;3.27;;;2.93;;
10653;SDS011;5375;51.250;6.776;2022-11-30T10:02:45;3.33;;;2.83;;
10653;SDS011;5375;51.250;6.776;2022-11-30T10:06:00;4.53;;;3.40;;
10653;SDS011;5375;51.250;6.776;2022-11-30T10:08:15;4.70;;;3.43;;
10653;SDS011;5375;51.250;6.776;2022-11-30T10:16:35;4.10;;;3.30;;
10653;SDS011;5375;51.250;6.776;2022-11-30T10:19:35;3.47;;;2.80;;
10653;SDS011;5375;51.250;6.776;2022-11-30T10:27:52;4.67;;;2.90;;
10653;SDS011;5375;51.250;6.776;2022-11-30T10:30:44;3.03;;;2.70;;
10653;SDS011;5375;51.250;6.776;2022-11-30T10:33:15;4.37;;;2.90;;
10653;SDS011;5375;51.250;6.776;2022-11-30T10:35:56;3.77;;;3.00;;
10653;SDS011;5375;51.250;6.776;2022-11-30T10:38:35;3.90;;;3.03;;
10653;SDS011;5375;51.250;6.776;2022-11-30T10:41:09;3.50;;;3.07;;
10653;SDS011;5375;51.250;6.776;2022-11-30T10:43:48;4.13;;;3.10;;
10653;SDS011;5375;51.250;6.776;2022-11-30T10:46:27;3.90;;;3.23;;
10653;SDS011;5375;51.250;6.776;2022-11-30T10:48:57;5.17;;;3.50;;
10653;SDS011;5375;51.250;6.776;2022-11-30T10:51:35;3.70;;;2.97;;
10653;SDS011;5375;51.250;6.776;2022-11-30T10:54:03;4.10;;;3.20;;
10653;SDS011;5375;51.250;6.776;2022-11-30T10:56:37;4.50;;;3.20;;
10653;SDS011;5375;51.250;6.776;2022-11-30T10:59:07;4.03;;;2.83;;
10653;SDS011;5375;51.250;6.776;2022-11-30T11:01:40;3.50;;;2.93;;
10653;SDS011;5375;51.250;6.776;2022-11-30T11:09:21;4.13;;;3.10;;
10653;SDS011;5375;51.250;6.776;2022-11-30T11:11:51;4.40;;;3.33;;
10653;SDS011;5375;51.250;6.776;2022-11-30T11:14:20;4.03;;;3.20;;
10653;SDS011;5375;51.250;6.776;2022-11-30T11:16:50;3.73;;;3.20;;
10653;SDS011;5375;51.250;6.776;2022-11-30T11:19:21;3.73;;;3.13;;
10653;SDS011;5375;51.250;6.776;2022-11-30T11:22:23;4.53;;;3.60;;
10653;SDS011;5375;51.250;6.776;2022-11-30T11:25:08;4.07;;;3.17;;
10653;SDS011;5375;51.250;6.776;2022-11-30T11:27:43;3.70;;;3.30;;
10653;SDS011;5375;51.250;6.776;2022-11-30T11:35:39;5.33;;;3.30;;
10653;SDS011;5375;51.250;6.776;2022-11-30T11:41:06;4.03;;;3.03;;
10653;SDS011;5375;51.250;6.776;2022-11-30T11:43:54;4.07;;;3.33;;
10653;SDS011;5375;51.250;6.776;2022-11-30T11:46:25;3.63;;;3.17;;
10653;SDS011;5375;51.250;6.776;2022-11-30T11:51:38;3.73;;;3.27;;
10653;SDS011;5375;51.250;6.776;2022-11-30T11:56:42;4.23;;;3.40;;
10653;SDS011;5375;51.250;6.776;2022-11-30T12:04:50;4.03;;;3.00;;
10653;SDS011;5375;51.250;6.776;2022-11-30T12:07:39;4.10;;;3.60;;
10653;SDS011;5375;51.250;6.776;2022-11-30T12:11:10;3.57;;;3.20;;
10653;SDS011;5375;51.250;6.776;2022-11-30T12:13:18;5.63;;;3.53;;
10653;SDS011;5375;51.250;6.776;2022-11-30T12:26:58;4.40;;;3.70;;
10653;SDS011;5375;51.250;6.776;2022-11-30T12:32:32;4.67;;;3.43;;
10653;SDS011;5375;51.250;6.776;2022-11-30T12:35:22;5.03;;;3.80;;
10653;SDS011;5375;51.250;6.776;2022-11-30T12:40:34;5.07;;;3.47;;
10653;SDS011;5375;51.250;6.776;2022-11-30T12:45:59;5.00;;;3.80;;
10653;SDS011;5375;51.250;6.776;2022-11-30T12:51:20;4.50;;;4.00;;
10653;SDS011;5375;51.250;6.776;2022-11-30T12:53:57;4.37;;;3.57;;
10653;SDS011;5375;51.250;6.776;2022-11-30T13:04:23;4.87;;;4.13;;
10653;SDS011;5375;51.250;6.776;2022-11-30T13:06:57;5.63;;;4.00;;
10653;SDS011;5375;51.250;6.776;2022-11-30T13:12:10;5.13;;;3.80;;
10653;SDS011;5375;51.250;6.776;2022-11-30T13:15:00;4.10;;;3.67;;
10653;SDS011;5375;51.250;6.776;2022-11-30T13:17:30;4.93;;;4.00;;
10653;SDS011;5375;51.250;6.776;2022-11-30T13:20:02;5.23;;;4.17;;
10653;SDS011;5375;51.250;6.776;2022-11-30T13:22:45;5.73;;;4.00;;
10653;SDS011;5375;51.250;6.776;2022-11-30T13:33:58;6.17;;;4.57;;
10653;SDS011;5375;51.250;6.776;2022-11-30T13:36:29;5.20;;;4.00;;
10653;SDS011;5375;51.250;6.776;2022-11-30T13:39:15;4.30;;;3.80;;
10653;SDS011;5375;51.250;6.776;2022-11-30T13:41:43;4.70;;;4.13;;
10653;SDS011;5375;51.250;6.776;2022-11-30T13:44:33;4.53;;;3.87;;
10653;SDS011;5375;51.250;6.776;2022-11-30T13:47:03;5.17;;;3.80;;
10653;SDS011;5375;51.250;6.776;2022-11-30T13:49:43;5.37;;;4.30;;
10653;SDS011;5375;51.250;6.776;2022-11-30T13:52:13;5.47;;;4.30;;
10653;SDS011;5375;51.250;6.776;2022-11-30T14:07:42;5.00;;;4.17;;
10653;SDS011;5375;51.250;6.776;2022-11-30T14:13:01;6.10;;;4.27;;
10653;SDS011;5375;51.250;6.776;2022-11-30T14:15:29;5.53;;;4.17;;
10653;SDS011;5375;51.250;6.776;2022-11-30T14:18:18;4.67;;;4.17;;
10653;SDS011;5375;51.250;6.776;2022-11-30T14:21:00;5.67;;;4.50;;
10653;SDS011;5375;51.250;6.776;2022-11-30T14:26:03;4.40;;;4.00;;
10653;SDS011;5375;51.250;6.776;2022-11-30T14:31:21;5.00;;;4.23;;
10653;SDS011;5375;51.250;6.776;2022-11-30T14:33:53;5.20;;;4.13;;
10653;SDS011;5375;51.250;6.776;2022-11-30T14:36:23;6.17;;;4.37;;
10653;SDS011;5375;51.250;6.776;2022-11-30T14:38:56;5.23;;;4.57;;
10653;SDS011;5375;51.250;6.776;2022-11-30T14:41:26;4.90;;;4.03;;
10653;SDS011;5375;51.250;6.776;2022-11-30T14:46:35;5.10;;;4.20;;
10653;SDS011;5375;51.250;6.776;2022-11-30T14:49:21;5.60;;;4.20;;
10653;SDS011;5375;51.250;6.776;2022-11-30T14:52:01;4.87;;;4.23;;
10653;SDS011;5375;51.250;6.776;2022-11-30T14:54:46;5.57;;;4.10;;
10653;SDS011;5375;51.250;6.776;2022-11-30T15:00:48;5.67;;;4.47;;
10653;SDS011;5375;51.250;6.776;2022-11-30T15:03:25;4.70;;;4.00;;
10653;SDS011;5375;51.250;6.776;2022-11-30T15:06:01;5.10;;;4.03;;
10653;SDS011;5375;51.250;6.776;2022-11-30T15:11:08;6.03;;;4.37;;
10653;SDS011;5375;51.250;6.776;2022-11-30T15:13:40;6.10;;;4.40;;
10653;SDS011;5375;51.250;6.776;2022-11-30T15:16:24;5.70;;;4.50;;
10653;SDS011;5375;51.250;6.776;2022-11-30T15:21:05;4.50;;;4.10;;
10653;SDS011;5375;51.250;6.776;2022-11-30T15:23:36;5.43;;;4.37;;
10653;SDS011;5375;51.250;6.776;2022-11-30T15:26:08;6.33;;;4.30;;
10653;SDS011;5375;51.250;6.776;2022-11-30T15:28:39;4.85;;;4.35;;
10653;SDS011;5375;51.250;6.776;2022-11-30T15:31:09;5.73;;;4.57;;
10653;SDS011;5375;51.250;6.776;2022-11-30T15:33:43;4.60;;;4.03;;
10653;SDS011;5375;51.250;6.776;2022-11-30T15:36:11;5.07;;;4.20;;
10653;SDS011;5375;51.250;6.776;2022-11-30T15:38:37;5.97;;;4.00;;
10653;SDS011;5375;51.250;6.776;2022-11-30T15:41:07;5.47;;;4.37;;
10653;SDS011;5375;51.250;6.776;2022-11-30T15:43:40;4.40;;;3.97;;
10653;SDS011;5375;51.250;6.776;2022-11-30T15:46:24;5.10;;;4.00;;
10653;SDS011;5375;51.250;6.776;2022-11-30T15:49:02;6.03;;;4.43;;
10653;SDS011;5375;51.250;6.776;2022-11-30T15:51:46;4.47;;;4.00;;
10653;SDS011;5375;51.250;6.776;2022-11-30T15:54:12;5.17;;;4.17;;
10653;SDS011;5375;51.250;6.776;2022-11-30T15:56:39;5.00;;;4.00;;
10653;SDS011;5375;51.250;6.776;2022-11-30T15:59:22;4.80;;;4.00;;
10653;SDS011;5375;51.250;6.776;2022-11-30T16:01:56;5.27;;;4.37;;
10653;SDS011;5375;51.250;6.776;2022-11-30T16:07:20;5.03;;;4.30;;
10653;SDS011;5375;51.250;6.776;2022-11-30T16:12:41;4.90;;;4.07;;
10653;SDS011;5375;51.250;6.776;2022-11-30T16:17:51;5.23;;;4.33;;
10653;SDS011;5375;51.250;6.776;2022-11-30T16:20:19;4.30;;;3.90;;
10653;SDS011;5375;51.250;6.776;2022-11-30T16:22:45;4.93;;;4.07;;
10653;SDS011;5375;51.250;6.776;2022-11-30T16:25:12;4.67;;;4.10;;
10653;SDS011;5375;51.250;6.776;2022-11-30T16:27:42;5.47;;;4.47;;
10653;SDS011;5375;51.250;6.776;2022-11-30T16:30:19;5.60;;;4.10;;
10653;SDS011;5375;51.250;6.776;2022-11-30T16:32:46;5.40;;;4.60;;
10653;SDS011;5375;51.250;6.776;2022-11-30T16:35:55;4.40;;;4.00;;
10653;SDS011;5375;51.250;6.776;2022-11-30T16:38:13;4.93;;;4.00;;
10653;SDS011;5375;51.250;6.776;2022-11-30T16:40:38;4.20;;;3.80;;
10653;SDS011;5375;51.250;6.776;2022-11-30T16:43:04;6.27;;;4.40;;
10653;SDS011;5375;51.250;6.776;2022-11-30T16:45:36;4.63;;;4.20;;
10653;SDS011;5375;51.250;6.776;2022-11-30T16:48:03;5.13;;;4.20;;
10653;SDS011;5375;51.250;6.776;2022-11-30T16:50:29;5.20;;;4.13;;
10653;SDS011;5375;51.250;6.776;2022-11-30T16:52:56;5.93;;;4.20;;
10653;SDS011;5375;51.250;6.776;2022-11-30T16:55:22;4.13;;;3.73;;
10653;SDS011;5375;51.250;6.776;2022-11-30T16:57:52;5.37;;;3.97;;
10653;SDS011;5375;51.250;6.776;2022-11-30T17:00:19;5.07;;;4.20;;
10653;SDS011;5375;51.250;6.776;2022-11-30T17:02:54;4.90;;;4.13;;
10653;SDS011;5375;51.250;6.776;2022-11-30T17:05:21;5.28;;;4.45;;
10653;SDS011;5375;51.250;6.776;2022-11-30T17:07:47;5.20;;;4.13;;
10653;SDS011;5375;51.250;6.776;2022-11-30T17:10:12;5.47;;;4.32;;
10653;SDS011;5375;51.250;6.776;2022-11-30T17:12:40;5.10;;;4.40;;
10653;SDS011;5375;51.250;6.776;2022-11-30T17:15:05;4.97;;;4.05;;
10653;SDS011;5375;51.250;6.776;2022-11-30T17:17:35;5.10;;;4.37;;
10653;SDS011;5375;51.250;6.776;2022-11-30T17:20:00;4.77;;;4.27;;
10653;SDS011;5375;51.250;6.776;2022-11-30T17:22:26;5.27;;;4.40;;
10653;SDS011;5375;51.250;6.776;2022-11-30T17:24:51;4.77;;;4.03;;
10653;SDS011;5375;51.250;6.776;2022-11-30T17:27:17;5.65;;;4.13;;
10653;SDS011;5375;51.250;6.776;2022-11-30T17:29:43;4.80;;;4.23;;
10653;SDS011;5375;51.250;6.776;2022-11-30T17:32:08;4.40;;;4.00;;
10653;SDS011;5375;51.250;6.776;2022-11-30T17:34:34;4.93;;;4.37;;